Time;durP1;ratioP1;P1;durP2;ratioP2;P2;SDS_P1;SDS_P2;PMS_P1;PMS_P2;Temp;Humidity;BMP_temperature;BMP_pressure;BME280_temperature;BME280_humidity;BME280_pressure;Samples;Min_cycle;Max_cycle;Signal;HPM_P1;HPM_P2
2023/04/06 00:01:08;;;;;;;4.40;2.80;;;;;;;2.43;100.00;101419.97;4929740;29;20055;-80
2023/04/06 00:03:35;;;;;;;4.73;2.80;;;;;;;2.32;100.00;101421.44;4910040;29;20052;-81
2023/04/06 00:06:03;;;;;;;4.30;2.67;;;;;;;2.33;100.00;101418.88;4958338;29;20055;-81
2023/04/06 00:08:30;;;;;;;5.10;3.13;;;;;;;2.27;100.00;101408.31;4935137;29;20108;-81
2023/04/06 00:10:56;;;;;;;4.47;2.83;;;;;;;2.27;100.00;101410.91;4935159;29;20674;-81
2023/04/06 00:13:23;;;;;;;3.93;2.90;;;;;;;2.19;100.00;101402.91;4920445;29;20561;-82
2023/04/06 00:15:50;;;;;;;5.10;3.30;;;;;;;2.11;100.00;101403.56;4935326;29;20054;-81
2023/04/06 00:18:17;;;;;;;5.70;3.37;;;;;;;2.00;100.00;101413.69;4923022;29;20040;-80
2023/04/06 00:20:43;;;;;;;4.97;3.40;;;;;;;1.90;100.00;101407.34;4935774;29;20220;-81
2023/04/06 00:23:10;;;;;;;5.43;3.33;;;;;;;1.92;100.00;101403.03;4937653;29;20054;-81
2023/04/06 00:25:37;;;;;;;5.43;3.80;;;;;;;1.89;100.00;101410.78;4934713;29;20036;-80
2023/04/06 00:28:03;;;;;;;6.53;3.40;;;;;;;1.74;100.00;101407.78;4928344;29;20052;-81
2023/04/06 00:30:30;;;;;;;6.63;3.77;;;;;;;1.74;100.00;101401.69;4932480;29;20107;-80
2023/04/06 00:32:57;;;;;;;5.47;3.30;;;;;;;1.62;100.00;101404.84;4919846;29;20044;-79
2023/04/06 00:35:24;;;;;;;5.67;3.20;;;;;;;1.56;100.00;101409.88;4937894;29;20044;-80
2023/04/06 00:37:50;;;;;;;5.40;3.73;;;;;;;1.62;100.00;101413.53;4937158;29;20446;-80
2023/04/06 00:40:17;;;;;;;4.37;3.00;;;;;;;1.57;100.00;101404.69;4934855;29;20051;-80
2023/04/06 00:42:44;;;;;;;4.77;3.10;;;;;;;1.41;100.00;101407.72;4951701;29;20047;-80
2023/04/06 00:45:11;;;;;;;4.73;3.10;;;;;;;1.33;100.00;101399.69;4937808;29;20494;-80
2023/04/06 00:47:37;;;;;;;6.07;3.60;;;;;;;1.26;100.00;101407.25;4947580;29;20072;-79
2023/04/06 00:50:05;;;;;;;4.87;3.57;;;;;;;1.27;100.00;101394.31;4935258;29;20042;-79
2023/04/06 00:52:31;;;;;;;4.47;3.43;;;;;;;1.33;100.00;101399.69;4939141;29;20134;-80
2023/04/06 00:54:58;;;;;;;4.27;2.93;;;;;;;1.20;100.00;101396.69;4938045;29;20445;-79
2023/04/06 00:57:25;;;;;;;6.57;3.47;;;;;;;1.24;100.00;101398.53;4929052;29;20040;-80
2023/04/06 00:59:51;;;;;;;5.17;4.00;;;;;;;1.27;100.00;101389.13;4941899;29;20104;-79
2023/04/06 01:02:18;;;;;;;4.83;3.27;;;;;;;1.07;100.00;101395.44;4937900;29;20035;-80
2023/04/06 01:04:45;;;;;;;6.00;3.33;;;;;;;1.01;100.00;101383.16;4903121;29;20552;-80
2023/04/06 01:07:11;;;;;;;4.97;2.90;;;;;;;0.86;100.00;101385.28;4924450;29;20043;-80
2023/04/06 01:09:40;;;;;;;5.50;3.30;;;;;;;0.82;100.00;101383.41;4934845;29;20102;-79
2023/04/06 01:12:07;;;;;;;5.10;3.20;;;;;;;0.75;100.00;101379.72;4936171;29;20048;-80
2023/04/06 01:14:34;;;;;;;6.37;3.97;;;;;;;0.68;100.00;101383.00;4899340;29;20048;-79
2023/04/06 01:17:01;;;;;;;5.67;3.67;;;;;;;0.73;100.00;101385.72;4939340;29;20453;-79
2023/04/06 01:19:28;;;;;;;5.80;3.30;;;;;;;0.59;100.00;101382.72;4920137;29;20044;-82
2023/04/06 01:21:54;;;;;;;6.43;3.90;;;;;;;0.51;100.00;101381.59;4935737;29;20047;-80
2023/04/06 01:24:21;;;;;;;5.93;3.53;;;;;;;0.50;100.00;101377.19;4900757;29;20051;-80
2023/04/06 01:26:48;;;;;;;6.57;3.97;;;;;;;0.47;100.00;101383.19;4905573;29;20047;-81
2023/04/06 01:29:15;;;;;;;6.73;4.13;;;;;;;0.46;100.00;101385.75;4912076;29;20485;-80
2023/04/06 01:31:42;;;;;;;5.77;3.87;;;;;;;0.26;100.00;101379.91;4933928;29;20039;-81
2023/04/06 01:34:08;;;;;;;5.73;3.90;;;;;;;0.23;100.00;101382.41;4919186;29;20095;-80
2023/04/06 01:36:35;;;;;;;6.63;3.90;;;;;;;0.06;100.00;101380.94;4915905;29;20040;-80
2023/04/06 01:39:02;;;;;;;5.87;3.63;;;;;;;0.15;100.00;101389.06;4934459;29;20051;-81
2023/04/06 01:41:29;;;;;;;6.27;3.70;;;;;;;0.00;100.00;101384.25;4933762;29;20072;-80
2023/04/06 01:43:55;;;;;;;6.53;3.20;;;;;;;0.06;100.00;101388.75;4933168;29;20116;-80
2023/04/06 01:46:22;;;;;;;5.60;3.73;;;;;;;-0.10;100.00;101388.22;4939247;29;20122;-80
2023/04/06 01:48:49;;;;;;;6.77;3.97;;;;;;;-0.10;100.00;101392.53;4923569;29;20043;-79
2023/04/06 01:51:16;;;;;;;6.77;3.97;;;;;;;-0.17;100.00;101393.16;4933532;29;20043;-80
2023/04/06 01:53:42;;;;;;;6.07;4.03;;;;;;;-0.17;100.00;101390.56;4940297;29;20039;-80
2023/04/06 01:56:09;;;;;;;6.03;3.97;;;;;;;-0.22;100.00;101392.13;4921656;29;20470;-81
2023/04/06 01:58:36;;;;;;;5.53;3.87;;;;;;;-0.22;100.00;101386.94;4922188;29;20050;-79
2023/04/06 02:01:03;;;;;;;8.10;4.37;;;;;;;-0.32;100.00;101396.13;4928084;29;20040;-80
2023/04/06 02:03:30;;;;;;;7.77;4.40;;;;;;;-0.30;100.00;101384.94;4935410;29;20151;-79
2023/04/06 02:05:57;;;;;;;7.70;4.77;;;;;;;-0.42;100.00;101388.81;4903441;29;20059;-79
2023/04/06 02:08:24;;;;;;;9.53;4.90;;;;;;;-0.48;100.00;101393.81;4911037;29;20508;-79
2023/04/06 02:10:51;;;;;;;8.37;4.40;;;;;;;-0.52;100.00;101395.38;4918791;29;21591;-80
2023/04/06 02:13:17;;;;;;;6.70;4.37;;;;;;;-0.62;100.00;101399.38;4922637;29;20044;-80
2023/04/06 02:15:44;;;;;;;7.40;4.83;;;;;;;-0.61;100.00;101385.56;4928412;29;20073;-80
2023/04/06 02:18:11;;;;;;;8.63;5.70;;;;;;;-0.51;100.00;101396.28;4924329;29;20062;-80
2023/04/06 02:20:38;;;;;;;6.57;4.77;;;;;;;-0.59;100.00;101389.13;4923012;29;20059;-80
2023/04/06 02:23:04;;;;;;;6.27;4.40;;;;;;;-0.56;100.00;101393.53;4935572;29;20039;-80
2023/04/06 02:25:31;;;;;;;6.33;4.37;;;;;;;-0.55;100.00;101387.50;4923812;29;20063;-80
2023/04/06 02:27:58;;;;;;;6.57;4.30;;;;;;;-0.61;100.00;101387.28;4938242;29;20043;-80
2023/04/06 02:30:25;;;;;;;7.20;4.53;;;;;;;-0.64;100.00;101387.16;4945971;29;20442;-80
2023/04/06 02:32:52;;;;;;;8.40;4.47;;;;;;;-0.73;100.00;101392.03;4911813;29;20051;-80
2023/04/06 02:35:19;;;;;;;7.97;4.27;;;;;;;-0.81;100.00;101383.97;4935391;29;20058;-80
2023/04/06 02:37:45;;;;;;;6.87;4.73;;;;;;;-0.83;100.00;101385.63;4916808;29;20765;-79
2023/04/06 02:40:13;;;;;;;7.57;5.40;;;;;;;-0.81;100.00;101383.06;4933655;29;20040;-80
2023/04/06 02:42:40;;;;;;;7.10;4.87;;;;;;;-0.87;100.00;101378.53;4926532;29;20087;-80
2023/04/06 02:45:07;;;;;;;6.77;4.67;;;;;;;-0.87;100.00;101383.72;4914809;29;20056;-80
2023/04/06 02:47:34;;;;;;;7.10;4.23;;;;;;;-0.82;100.00;101381.31;4925661;29;20054;-80
2023/04/06 02:50:01;;;;;;;5.03;3.87;;;;;;;-0.91;100.00;101381.84;4946120;29;20075;-81
2023/04/06 02:52:28;;;;;;;7.83;4.20;;;;;;;-0.96;100.00;101379.06;4902395;29;20058;-80
2023/04/06 02:54:55;;;;;;;8.00;4.47;;;;;;;-0.91;100.00;101390.53;4917038;29;20472;-80
2023/04/06 02:57:22;;;;;;;7.83;5.37;;;;;;;-0.97;100.00;101381.63;4900698;29;20404;-80
2023/04/06 02:59:48;;;;;;;8.27;4.83;;;;;;;-0.95;100.00;101387.75;4931015;29;20138;-79
2023/04/06 03:02:17;;;;;;;8.00;4.77;;;;;;;-1.00;100.00;101385.00;4917907;29;20078;-80
2023/04/06 03:04:44;;;;;;;9.60;4.60;;;;;;;-1.09;100.00;101392.41;4914875;29;20485;-80
2023/04/06 03:07:11;;;;;;;8.73;4.90;;;;;;;-1.17;100.00;101386.06;4918424;29;20058;-79
2023/04/06 03:09:38;;;;;;;9.07;4.90;;;;;;;-1.23;100.00;101384.09;4934573;29;20028;-80
2023/04/06 03:12:05;;;;;;;7.60;5.17;;;;;;;-1.25;100.00;101390.06;4902751;29;20040;-80
2023/04/06 03:14:35;;;;;;;10.47;5.93;;;;;;;-1.30;100.00;101389.88;4931549;29;20043;-79
2023/04/06 03:17:02;;;;;;;9.17;4.93;;;;;;;-1.33;100.00;101389.75;4935339;29;20413;-80
2023/04/06 03:19:28;;;;;;;7.20;4.20;;;;;;;-1.37;100.00;101393.03;4915942;29;20044;-81
2023/04/06 03:21:55;;;;;;;8.13;5.10;;;;;;;-1.52;100.00;101393.31;4933481;29;20044;-80
2023/04/06 03:24:22;;;;;;;8.03;4.87;;;;;;;-1.55;100.00;101394.91;4913528;29;20071;-80
2023/04/06 03:26:49;;;;;;;7.53;4.97;;;;;;;-1.56;100.00;101403.50;4918813;29;20047;-80
2023/04/06 03:29:16;;;;;;;7.60;4.60;;;;;;;-1.53;100.00;101398.44;4930175;29;20136;-80
2023/04/06 03:31:44;;;;;;;7.60;4.70;;;;;;;-1.50;100.00;101402.06;4922983;29;20051;-79
2023/04/06 03:34:14;;;;;;;9.60;5.33;;;;;;;-1.62;100.00;101403.25;4937113;29;20051;-79
2023/04/06 03:36:41;;;;;;;9.93;5.70;;;;;;;-1.60;100.00;101401.59;4917629;29;20051;-80
2023/04/06 03:39:07;;;;;;;8.97;4.73;;;;;;;-1.66;100.00;101402.25;4919694;29;20048;-79
2023/04/06 03:41:35;;;;;;;7.83;4.73;;;;;;;-1.65;100.00;101406.59;4935975;29;20043;-79
2023/04/06 03:44:01;;;;;;;10.43;5.63;;;;;;;-1.65;100.00;101409.19;4932392;29;20521;-80
2023/04/06 03:46:28;;;;;;;8.13;5.53;;;;;;;-1.72;100.00;101408.06;4931898;29;20043;-80
2023/04/06 03:48:55;;;;;;;9.33;5.13;;;;;;;-1.66;100.00;101415.22;4925396;29;20048;-78
2023/04/06 03:51:22;;;;;;;8.37;5.33;;;;;;;-1.62;100.00;101414.50;4932571;29;20038;-81
2023/04/06 03:53:49;;;;;;;7.83;4.73;;;;;;;-1.72;100.00;101418.41;4917529;29;20048;-80
2023/04/06 03:56:15;;;;;;;7.53;4.97;;;;;;;-1.86;100.00;101423.84;4931577;29;20149;-80
2023/04/06 03:58:44;;;;;;;9.50;5.30;;;;;;;-1.81;100.00;101433.59;4915711;29;20055;-79
2023/04/06 04:01:11;;;;;;;9.20;6.07;;;;;;;-1.79;100.00;101428.47;4929825;29;20138;-80
2023/04/06 04:03:39;;;;;;;8.93;5.37;;;;;;;-1.78;100.00;101430.22;4930252;29;20058;-80
2023/04/06 04:06:07;;;;;;;8.97;5.03;;;;;;;-1.84;100.00;101438.66;4928968;29;20044;-81
2023/04/06 04:08:35;;;;;;;9.50;6.70;;;;;;;-1.82;100.00;101430.94;4931737;29;20048;-81
2023/04/06 04:11:02;;;;;;;7.97;4.57;;;;;;;-1.93;100.00;101434.75;4917465;29;20118;-81
2023/04/06 04:13:28;;;;;;;7.37;5.30;;;;;;;-1.92;100.00;101439.16;4903461;29;20529;-78
2023/04/06 04:15:55;;;;;;;8.63;5.20;;;;;;;-2.00;100.00;101439.69;4937893;29;20420;-79
2023/04/06 04:18:22;;;;;;;7.57;5.40;;;;;;;-2.05;100.00;101441.19;4939874;29;20039;-80
2023/04/06 04:20:48;;;;;;;9.30;5.60;;;;;;;-2.06;100.00;101443.72;4938213;29;20109;-80
2023/04/06 04:23:15;;;;;;;7.57;5.27;;;;;;;-2.03;100.00;101444.72;4943151;29;20067;-80
2023/04/06 04:25:44;;;;;;;10.13;5.83;;;;;;;-2.07;100.00;101442.84;4933999;29;20194;-80
2023/04/06 04:28:14;;;;;;;10.30;5.30;;;;;;;-2.02;100.00;101446.53;4927510;29;20043;-81
2023/04/06 04:30:41;;;;;;;9.57;6.00;;;;;;;-2.06;100.00;101452.38;4943277;29;20054;-80
2023/04/06 04:33:08;;;;;;;9.57;5.97;;;;;;;-2.09;100.00;101452.25;4930941;29;20054;-80
2023/04/06 04:35:35;;;;;;;11.00;6.80;;;;;;;-2.01;100.00;101453.47;4930663;29;20036;-81
2023/04/06 04:38:02;;;;;;;10.67;6.77;;;;;;;-1.94;100.00;101451.13;4943277;29;20044;-80
2023/04/06 04:40:28;;;;;;;9.60;5.60;;;;;;;-1.97;100.00;101451.88;4933944;29;20043;-81
2023/04/06 04:42:55;;;;;;;11.03;6.23;;;;;;;-1.99;100.00;101450.94;4929963;29;20050;-80
2023/04/06 04:45:22;;;;;;;8.47;5.83;;;;;;;-1.94;100.00;101451.13;4931131;29;20441;-80
2023/04/06 04:47:48;;;;;;;8.30;5.70;;;;;;;-2.06;100.00;101451.50;4941192;29;20054;-79
2023/04/06 04:50:15;;;;;;;11.70;6.90;;;;;;;-2.04;100.00;101450.72;4919646;29;20047;-80
2023/04/06 04:52:43;;;;;;;10.30;7.07;;;;;;;-1.95;100.00;101451.94;4927309;29;20047;-79
2023/04/06 04:55:10;;;;;;;10.03;6.60;;;;;;;-2.05;100.00;101448.06;4940362;28;20048;-80
2023/04/06 04:57:43;;;;;;;12.07;6.87;;;;;;;-2.04;100.00;101460.19;4927109;29;20130;-81
2023/04/06 05:00:21;;;;;;;9.53;5.90;;;;;;;-2.08;100.00;101447.97;4932782;29;20054;-79
2023/04/06 05:02:49;;;;;;;9.50;6.10;;;;;;;-2.11;100.00;101458.16;4911200;29;20055;-80
2023/04/06 05:05:16;;;;;;;9.60;5.83;;;;;;;-2.07;100.00;101453.19;4930263;29;20043;-80
2023/04/06 05:07:42;;;;;;;11.10;6.43;;;;;;;-2.13;100.00;101458.09;4910155;29;20055;-81
2023/04/06 05:10:10;;;;;;;9.40;5.93;;;;;;;-1.96;100.00;101460.53;4919734;29;20060;-82
2023/04/06 05:12:37;;;;;;;10.07;6.43;;;;;;;-1.96;100.00;101457.94;4915409;29;20078;-81
2023/04/06 05:15:04;;;;;;;10.27;6.20;;;;;;;-2.05;100.00;101461.03;4931081;29;20054;-79
2023/04/06 05:17:31;;;;;;;10.60;6.20;;;;;;;-1.98;100.00;101465.66;4924576;29;20047;-80
2023/04/06 05:19:58;;;;;;;12.13;5.87;;;;;;;-1.94;100.00;101470.13;4900650;29;20075;-80
2023/04/06 05:22:25;;;;;;;8.27;5.70;;;;;;;-2.00;100.00;101462.13;4917357;29;20039;-81
2023/04/06 05:24:53;;;;;;;8.70;6.33;;;;;;;-1.95;100.00;101463.19;4905166;29;20046;-80
2023/04/06 05:27:19;;;;;;;9.00;5.83;;;;;;;-1.95;100.00;101473.53;4940368;29;20449;-79
2023/04/06 05:29:46;;;;;;;9.57;5.80;;;;;;;-1.85;100.00;101469.63;4917868;29;20461;-80
2023/04/06 05:32:13;;;;;;;10.57;6.70;;;;;;;-1.83;100.00;101479.25;4935600;29;20040;-80
2023/04/06 05:34:42;;;;;;;9.63;6.13;;;;;;;-1.81;100.00;101476.72;4944036;29;20058;-80
2023/04/06 05:37:25;;;;;;;12.07;6.33;;;;;;;-1.75;100.00;101475.28;4943423;29;20082;-82
2023/04/06 05:39:54;;;;;;;9.53;6.63;;;;;;;-1.82;100.00;101472.38;4947526;29;20047;-81
2023/04/06 05:42:22;;;;;;;11.47;5.87;;;;;;;-1.79;100.00;101483.72;4930467;29;20095;-79
2023/04/06 05:44:49;;;;;;;9.47;5.50;;;;;;;-1.69;100.00;101479.81;4921975;29;20044;-79
2023/04/06 05:47:16;;;;;;;11.43;5.90;;;;;;;-1.71;100.00;101471.13;4920051;29;20046;-81
2023/04/06 05:49:43;;;;;;;7.73;5.57;;;;;;;-1.60;100.00;101479.31;4931901;29;20035;-80
2023/04/06 05:52:10;;;;;;;9.53;5.97;;;;;;;-1.53;100.00;101481.34;4928099;29;20054;-80
2023/04/06 05:54:37;;;;;;;13.57;7.53;;;;;;;-1.45;100.00;101473.06;4909655;29;20040;-80
2023/04/06 05:57:03;;;;;;;8.63;6.47;;;;;;;-1.47;100.00;101486.81;4928025;29;20107;-80
2023/04/06 05:59:31;;;;;;;9.07;5.80;;;;;;;-1.33;100.00;101479.59;4895449;29;20066;-80
2023/04/06 06:01:58;;;;;;;10.33;6.70;;;;;;;-1.34;100.00;101488.19;4912954;29;20103;-80
2023/04/06 06:04:27;;;;;;;10.60;7.20;;;;;;;-1.29;100.00;101481.47;4925407;29;20050;-81
2023/04/06 06:06:54;;;;;;;12.50;7.50;;;;;;;-1.37;100.00;101477.69;4931266;29;20075;-81
2023/04/06 06:09:21;;;;;;;9.77;7.50;;;;;;;-1.28;100.00;101478.94;4941191;29;20068;-81
2023/04/06 06:11:48;;;;;;;11.87;7.00;;;;;;;-1.24;100.00;101482.56;4928412;29;20055;-82
2023/04/06 06:14:16;;;;;;;10.93;6.80;;;;;;;-1.18;100.00;101482.78;4919062;29;20062;-82
2023/04/06 06:16:43;;;;;;;11.87;7.43;;;;;;;-1.14;100.00;101484.69;4921424;29;20043;-81
2023/04/06 06:19:10;;;;;;;11.73;7.63;;;;;;;-1.05;100.00;101482.47;4934886;29;20103;-82
2023/04/06 06:21:36;;;;;;;15.03;8.10;;;;;;;-0.96;100.00;101482.81;4935090;29;20028;-81
2023/04/06 06:24:06;;;;;;;14.37;9.03;;;;;;;-0.77;100.00;101473.16;4901046;29;20050;-81
2023/04/06 06:26:37;;;;;;;10.57;7.27;;;;;;;-0.21;100.00;101482.19;4934858;29;20040;-82
2023/04/06 06:29:09;;;;;;;10.07;6.38;;;;;;;1.62;100.00;101465.63;4927234;29;20082;-81
2023/04/06 06:31:36;;;;;;;7.30;4.63;;;;;;;3.27;100.00;101459.38;4890988;29;20040;-83
2023/04/06 06:34:03;;;;;;;6.10;4.37;;;;;;;4.74;100.00;101465.69;4918698;29;20047;-83
2023/04/06 06:36:31;;;;;;;7.33;5.00;;;;;;;6.14;94.17;101450.97;4930402;29;20043;-82
2023/04/06 06:38:58;;;;;;;5.40;4.50;;;;;;;7.00;83.71;101447.31;4927443;29;20040;-82
2023/04/06 06:41:25;;;;;;;7.93;4.33;;;;;;;7.91;74.50;101446.03;4911227;29;20035;-82
2023/04/06 06:43:52;;;;;;;11.15;7.70;;;;;;;8.53;65.60;101447.03;4923709;29;20396;-82
2023/04/06 06:46:20;;;;;;;15.00;10.15;;;;;;;9.02;64.60;101446.13;4908693;29;20050;-81
2023/04/06 06:48:47;;;;;;;14.70;10.55;;;;;;;9.27;63.53;101433.78;4973100;23;20146;-80
2023/04/06 06:51:14;;;;;;;9.77;6.88;;;;;;;9.94;59.64;101453.72;4883987;29;20413;-79
2023/04/06 06:53:41;;;;;;;7.15;5.88;;;;;;;10.40;57.79;101450.84;4875993;29;20037;-79
2023/04/06 06:56:10;;;;;;;8.23;5.15;;;;;;;10.54;57.66;101451.63;4889529;29;20051;-80
2023/04/06 06:58:37;;;;;;;6.00;4.50;;;;;;;10.69;54.11;101451.50;4890536;29;20040;-79
2023/04/06 07:01:04;;;;;;;7.47;4.72;;;;;;;11.12;51.21;101456.38;4896693;29;20391;-79
2023/04/06 07:03:33;;;;;;;7.13;4.93;;;;;;;11.19;51.30;101450.16;4890316;29;20052;-80
2023/04/06 07:05:59;;;;;;;5.75;4.38;;;;;;;11.21;50.13;101447.47;4891851;29;20074;-79
2023/04/06 07:08:26;;;;;;;4.72;4.30;;;;;;;11.19;49.24;101452.78;4891095;29;20056;-79
2023/04/06 07:10:53;;;;;;;5.30;4.40;;;;;;;11.29;49.54;101458.84;4879996;29;20096;-80
2023/04/06 07:13:23;;;;;;;7.20;4.63;;;;;;;11.02;51.46;101460.03;4890248;29;20044;-80
2023/04/06 07:15:50;;;;;;;4.97;3.88;;;;;;;11.05;51.08;101454.69;4876765;29;20073;-79
2023/04/06 07:18:18;;;;;;;5.10;4.18;;;;;;;11.25;47.84;101459.78;4879646;29;20056;-79
2023/04/06 07:20:45;;;;;;;5.63;3.78;;;;;;;11.35;49.21;101460.53;4891110;29;20054;-79
2023/04/06 07:23:12;;;;;;;4.47;4.00;;;;;;;11.27;49.49;101456.25;4897774;29;20060;-85
2023/04/06 07:25:39;;;;;;;6.70;4.20;;;;;;;11.17;49.19;101457.19;4891356;29;20037;-84
2023/04/06 07:28:05;;;;;;;801.28;596.55;;;;;;;10.54;46.73;101456.91;4876498;29;20036;-83
2023/04/06 07:30:32;;;;;;;126.07;79.25;;;;;;;10.31;49.03;101453.53;4894446;29;20048;-87
2023/04/06 07:33:02;;;;;;;16.75;11.63;;;;;;;10.37;51.19;101450.88;4859461;29;20048;-86
2023/04/06 07:35:29;;;;;;;7.47;4.95;;;;;;;10.24;50.26;101451.81;4879223;29;20049;-83
2023/04/06 07:37:57;;;;;;;5.38;4.05;;;;;;;10.18;50.44;101449.22;4882305;29;20048;-85
2023/04/06 07:40:23;;;;;;;4.38;3.83;;;;;;;10.08;49.76;101453.63;4862212;29;20051;-82
2023/04/06 07:42:53;;;;;;;5.25;4.10;;;;;;;10.01;48.65;101444.91;4879327;29;20041;-84
2023/04/06 07:45:23;;;;;;;5.03;3.97;;;;;;;9.66;51.60;101454.72;4890877;29;20093;-84
2023/04/06 07:47:50;;;;;;;6.63;4.00;;;;;;;9.51;51.34;101453.03;4872321;29;20049;-82
2023/04/06 07:50:17;;;;;;;5.07;3.47;;;;;;;9.23;50.42;101452.22;4867937;29;20068;-85
2023/04/06 07:52:43;;;;;;;4.43;3.47;;;;;;;9.11;51.04;101444.34;4906262;29;20149;-83
2023/04/06 07:55:10;;;;;;;5.30;3.70;;;;;;;9.11;53.21;101450.50;4870799;29;20049;-82
2023/04/06 07:57:37;;;;;;;6.28;4.22;;;;;;;8.93;52.12;101458.44;4876937;29;20529;-84
2023/04/06 08:00:04;;;;;;;6.80;3.70;;;;;;;8.95;49.73;101454.91;4862014;29;20052;-83
2023/04/06 08:02:34;;;;;;;5.80;3.70;;;;;;;8.84;49.62;101459.34;4908623;29;20037;-82
2023/04/06 08:05:03;;;;;;;5.72;4.28;;;;;;;8.84;48.08;101458.44;4871784;29;20064;-85
2023/04/06 08:07:30;;;;;;;7.22;4.28;;;;;;;8.59;49.35;101457.56;4867951;29;20093;-82
2023/04/06 08:09:56;;;;;;;5.88;4.07;;;;;;;8.63;51.13;101460.19;4860947;29;20108;-81
2023/04/06 08:12:23;;;;;;;14.95;10.70;;;;;;;8.52;49.11;101463.72;4891739;29;20041;-88
2023/04/06 08:14:50;;;;;;;6.17;3.97;;;;;;;8.27;49.61;101462.75;4891615;29;20055;-83
2023/04/06 08:17:16;;;;;;;3.57;2.97;;;;;;;8.06;50.78;101461.81;4882416;29;20455;-82
2023/04/06 08:19:44;;;;;;;4.60;3.63;;;;;;;8.27;50.39;101466.28;4879638;29;20067;-86
2023/04/06 08:22:11;;;;;;;5.43;3.03;;;;;;;8.33;48.86;101466.28;4881819;29;20104;-82
2023/04/06 08:24:38;;;;;;;4.47;3.13;;;;;;;8.26;49.65;101467.16;4869541;29;20044;-82
2023/04/06 08:27:05;;;;;;;4.90;3.10;;;;;;;8.12;49.99;101463.59;4896075;29;20044;-80
2023/04/06 08:29:31;;;;;;;5.47;3.87;;;;;;;8.25;48.69;101452.25;4888487;29;20041;-80
2023/04/06 08:31:58;;;;;;;4.80;3.00;;;;;;;8.32;50.92;101456.63;4911797;29;20537;-83
2023/04/06 08:34:25;;;;;;;3.80;3.30;;;;;;;8.33;48.15;101458.41;4890010;29;20060;-81
2023/04/06 08:36:52;;;;;;;4.60;3.40;;;;;;;8.26;48.15;101463.66;4891387;29;20055;-81
2023/04/06 08:39:25;;;;;;;4.97;3.33;;;;;;;7.72;46.30;101457.34;4877498;29;20104;-82
2023/04/06 08:41:52;;;;;;;6.67;3.60;;;;;;;8.13;47.60;101450.44;4879433;29;20045;-80
2023/04/06 08:44:19;;;;;;;7.10;3.40;;;;;;;8.15;49.58;101458.34;4866397;29;20095;-82
2023/04/06 08:46:46;;;;;;;5.17;2.70;;;;;;;8.21;47.02;101455.72;4896800;29;20055;-81
2023/04/06 08:49:14;;;;;;;5.13;2.63;;;;;;;8.38;48.70;101461.06;4900339;29;20491;-81
2023/04/06 08:51:41;;;;;;;4.70;2.23;;;;;;;8.55;44.35;101451.41;4895633;29;20139;-82
2023/04/06 08:54:09;;;;;;;4.47;2.60;;;;;;;8.66;46.28;101451.41;4880107;29;20053;-80
2023/04/06 08:56:40;;;;;;;3.23;2.60;;;;;;;8.72;48.05;101456.69;4889187;29;20041;-80
2023/04/06 08:59:07;;;;;;;5.13;2.50;;;;;;;8.92;48.40;101447.03;4876081;29;20045;-84
2023/04/06 09:01:40;;;;;;;3.50;2.60;;;;;;;9.30;45.91;101438.16;4886040;29;20124;-80
2023/04/06 09:04:11;;;;;;;4.53;2.97;;;;;;;9.55;44.77;101447.75;4895718;29;20095;-81
2023/04/06 09:06:40;;;;;;;5.22;2.67;;;;;;;9.66;44.67;101445.06;4885157;29;20049;-83
2023/04/06 09:09:07;;;;;;;4.97;2.67;;;;;;;9.91;43.23;101451.09;4903324;29;20049;-82
2023/04/06 09:11:47;;;;;;;4.95;2.38;;;;;;;9.85;42.42;101438.81;4884303;29;20672;-80
2023/04/06 09:14:16;;;;;;;4.18;2.75;;;;;;;10.16;45.53;101444.78;4891504;29;20501;-82
2023/04/06 09:16:45;;;;;;;3.42;2.17;;;;;;;10.45;42.77;101438.47;4896607;29;20044;-80
2023/04/06 09:19:12;;;;;;;4.15;2.80;;;;;;;10.72;41.33;101434.72;4864246;29;20049;-81
2023/04/06 09:21:42;;;;;;;3.28;2.40;;;;;;;10.98;41.51;101443.28;4879976;29;20051;-81
2023/04/06 09:24:09;;;;;;;4.10;2.85;;;;;;;11.12;42.41;101440.53;4876217;29;20056;-80
2023/04/06 09:26:46;;;;;;;5.03;2.72;;;;;;;10.84;40.86;101436.38;4879619;29;20071;-79
2023/04/06 09:29:25;;;;;;;5.38;3.40;;;;;;;11.04;41.23;101431.78;4872751;29;20072;-83
2023/04/06 09:31:52;;;;;;;14.50;8.15;;;;;;;11.08;38.97;101435.25;4887365;29;20136;-80
2023/04/06 09:34:23;;;;;;;3.47;2.80;;;;;;;11.16;41.82;101434.28;4898128;29;20122;-80
2023/04/06 09:36:51;;;;;;;3.95;2.67;;;;;;;10.77;39.23;101434.69;4894961;29;20399;-81
2023/04/06 09:39:22;;;;;;;3.30;2.20;;;;;;;10.47;39.56;101433.19;4890528;29;20041;-81
2023/04/06 09:41:50;;;;;;;3.03;2.40;;;;;;;10.64;40.53;101424.22;4894767;29;20048;-80
2023/04/06 09:44:17;;;;;;;3.65;2.42;;;;;;;11.14;38.74;101424.63;4895264;29;20040;-80
2023/04/06 09:46:45;;;;;;;6.25;3.13;;;;;;;11.34;39.34;101429.69;4876832;29;20048;-84
2023/04/06 09:49:27;;;;;;;8.27;6.07;;;;;;;11.46;39.36;101413.69;4854339;29;20498;-81
2023/04/06 09:51:59;;;;;;;6.35;3.45;;;;;;;11.93;40.02;101418.38;4880156;29;20033;-85
2023/04/06 09:54:29;;;;;;;4.07;2.30;;;;;;;11.71;37.05;101415.13;4879426;29;20048;-81
2023/04/06 09:57:16;;;;;;;4.22;2.20;;;;;;;11.36;38.12;101417.34;4859654;29;20072;-85
2023/04/06 09:59:50;;;;;;;2.88;2.42;;;;;;;10.82;38.32;101425.81;4862346;29;20135;-82
2023/04/06 10:02:56;;;;;;;3.67;2.33;;;;;;;10.60;38.82;101424.28;4873540;29;20060;-82
2023/04/06 10:05:37;;;;;;;4.28;2.70;;;;;;;10.47;41.22;101422.59;4863220;29;20084;-83
2023/04/06 10:08:07;;;;;;;4.35;2.80;;;;;;;10.45;40.83;101414.69;4898933;29;20049;-79
2023/04/06 10:10:34;;;;;;;4.28;2.15;;;;;;;10.25;41.11;101419.25;4886434;29;20048;-80
2023/04/06 10:13:01;;;;;;;3.42;2.45;;;;;;;10.33;40.94;101409.50;4858159;29;20041;-82
2023/04/06 10:15:34;;;;;;;5.65;3.10;;;;;;;10.53;41.76;101412.00;4894456;29;20037;-78
2023/04/06 10:18:03;;;;;;;3.40;2.25;;;;;;;11.03;41.22;101408.00;4887524;29;20079;-82
2023/04/06 10:21:09;;;;;;;4.85;2.78;;;;;;;11.22;37.09;101414.84;4860996;29;20493;-81
2023/04/06 10:23:44;;;;;;;4.15;2.28;;;;;;;11.51;37.28;101414.50;4888726;29;20193;-82
2023/04/06 10:26:16;;;;;;;3.33;2.30;;;;;;;12.11;39.97;101412.84;4907355;29;20048;-83
2023/04/06 10:28:47;;;;;;;3.20;2.15;;;;;;;12.11;35.38;101407.56;4885582;29;20036;-79
2023/04/06 10:31:14;;;;;;;3.33;2.42;;;;;;;11.91;37.06;101408.72;4877442;29;20485;-82
2023/04/06 10:33:41;;;;;;;2.63;1.90;;;;;;;11.72;38.05;101410.72;4892592;29;20439;-81
2023/04/06 10:36:11;;;;;;;3.50;1.90;;;;;;;11.53;37.72;101418.03;4889636;29;20052;-81
2023/04/06 10:38:39;;;;;;;3.72;2.15;;;;;;;11.36;38.91;101415.56;4899042;29;20120;-80
2023/04/06 10:41:11;;;;;;;3.47;2.00;;;;;;;11.28;37.99;101412.16;4875499;29;20082;-81
2023/04/06 10:43:40;;;;;;;6.88;4.40;;;;;;;11.49;38.70;101413.66;4878410;29;20131;-81
2023/04/06 10:46:09;;;;;;;2.67;1.90;;;;;;;11.80;39.37;101409.75;4861836;29;21707;-80
2023/04/06 10:48:38;;;;;;;27.08;16.55;;;;;;;11.92;35.97;101405.16;4898816;29;20048;-83
2023/04/06 10:51:11;;;;;;;4.60;2.85;;;;;;;11.96;37.33;101405.13;4892419;29;20136;-81
2023/04/06 10:53:37;;;;;;;3.20;2.13;;;;;;;12.01;38.40;101407.69;4871963;29;20061;-81
2023/04/06 10:56:11;;;;;;;6.55;2.72;;;;;;;12.51;38.09;101400.72;4871454;29;20037;-79
2023/04/06 10:58:38;;;;;;;4.05;2.60;;;;;;;12.42;36.52;101401.75;4873889;29;20124;-78
2023/04/06 11:01:05;;;;;;;4.03;1.98;;;;;;;12.34;35.70;101393.94;4875028;29;20566;-80
2023/04/06 11:03:42;;;;;;;2.88;2.00;;;;;;;12.14;36.59;101403.97;4900035;29;20037;-79
2023/04/06 11:06:09;;;;;;;3.22;2.17;;;;;;;11.98;38.57;101395.38;4878003;29;20055;-78
2023/04/06 11:08:38;;;;;;;4.13;2.15;;;;;;;11.61;37.01;101405.56;4887611;29;20056;-78
2023/04/06 11:11:15;;;;;;;2.83;1.80;;;;;;;11.50;38.73;101400.38;4882680;29;20067;-78
2023/04/06 11:13:43;;;;;;;2.50;1.77;;;;;;;11.33;38.64;101402.38;4880143;29;20049;-78
2023/04/06 11:16:23;;;;;;;3.85;2.00;;;;;;;11.22;37.90;101402.50;4896836;29;20048;-78
2023/04/06 11:18:58;;;;;;;3.42;2.45;;;;;;;11.00;39.24;101403.59;4886473;29;20049;-78
2023/04/06 11:21:35;;;;;;;2.72;2.10;;;;;;;10.90;37.40;101399.31;4879026;29;20045;-78
2023/04/06 11:24:19;;;;;;;4.00;2.30;;;;;;;10.75;37.25;101399.47;4880569;29;20127;-78
2023/04/06 11:26:55;;;;;;;3.47;2.10;;;;;;;10.94;36.80;101398.41;4875236;29;20144;-78